sensor_id;sensor_type;location;lat;lon;timestamp;P1;durP1;ratioP1;P2;durP2;ratioP2
18338;SDS011;9295;44.484;11.240;2023-07-20T00:01:06;23.10;;;6.53;;
18338;SDS011;9295;44.484;11.240;2023-07-20T00:03:37;19.57;;;6.33;;
18338;SDS011;9295;44.484;11.240;2023-07-20T00:06:05;26.03;;;7.00;;
18338;SDS011;9295;44.484;11.240;2023-07-20T00:08:34;29.97;;;7.43;;
18338;SDS011;9295;44.484;11.240;2023-07-20T00:11:02;19.97;;;6.57;;
18338;SDS011;9295;44.484;11.240;2023-07-20T00:13:31;34.47;;;7.77;;
18338;SDS011;9295;44.484;11.240;2023-07-20T00:15:59;17.00;;;6.43;;
18338;SDS011;9295;44.484;11.240;2023-07-20T00:18:28;19.87;;;7.07;;
18338;SDS011;9295;44.484;11.240;2023-07-20T00:20:58;17.63;;;7.00;;
18338;SDS011;9295;44.484;11.240;2023-07-20T00:23:28;15.07;;;6.40;;
18338;SDS011;9295;44.484;11.240;2023-07-20T00:25:58;25.03;;;7.60;;
18338;SDS011;9295;44.484;11.240;2023-07-20T00:28:27;25.20;;;6.27;;
18338;SDS011;9295;44.484;11.240;2023-07-20T00:30:56;19.23;;;6.60;;
18338;SDS011;9295;44.484;11.240;2023-07-20T00:33:28;13.17;;;6.40;;
18338;SDS011;9295;44.484;11.240;2023-07-20T00:35:59;18.70;;;6.20;;
18338;SDS011;9295;44.484;11.240;2023-07-20T00:38:30;25.13;;;6.83;;
18338;SDS011;9295;44.484;11.240;2023-07-20T00:40:59;18.50;;;6.77;;
18338;SDS011;9295;44.484;11.240;2023-07-20T00:43:27;23.30;;;7.33;;
18338;SDS011;9295;44.484;11.240;2023-07-20T00:45:56;16.67;;;6.83;;
18338;SDS011;9295;44.484;11.240;2023-07-20T00:48:27;23.43;;;6.77;;
18338;SDS011;9295;44.484;11.240;2023-07-20T00:50:56;23.90;;;7.03;;
18338;SDS011;9295;44.484;11.240;2023-07-20T00:53:27;15.00;;;6.70;;
18338;SDS011;9295;44.484;11.240;2023-07-20T00:55:56;21.40;;;6.43;;
18338;SDS011;9295;44.484;11.240;2023-07-20T00:58:25;23.97;;;6.03;;
18338;SDS011;9295;44.484;11.240;2023-07-20T01:00:56;12.53;;;6.33;;
18338;SDS011;9295;44.484;11.240;2023-07-20T01:03:24;17.40;;;6.50;;
18338;SDS011;9295;44.484;11.240;2023-07-20T01:05:54;19.90;;;6.47;;
18338;SDS011;9295;44.484;11.240;2023-07-20T01:08:31;18.53;;;6.20;;
18338;SDS011;9295;44.484;11.240;2023-07-20T01:11:10;15.80;;;5.80;;
18338;SDS011;9295;44.484;11.240;2023-07-20T01:13:44;17.73;;;6.10;;
18338;SDS011;9295;44.484;11.240;2023-07-20T01:16:13;15.50;;;5.50;;
18338;SDS011;9295;44.484;11.240;2023-07-20T01:18:42;21.23;;;7.30;;
18338;SDS011;9295;44.484;11.240;2023-07-20T01:21:12;22.03;;;6.40;;
18338;SDS011;9295;44.484;11.240;2023-07-20T01:23:53;15.47;;;5.10;;
18338;SDS011;9295;44.484;11.240;2023-07-20T01:26:49;13.37;;;5.13;;
18338;SDS011;9295;44.484;11.240;2023-07-20T01:29:54;11.63;;;4.80;;
18338;SDS011;9295;44.484;11.240;2023-07-20T01:32:34;12.43;;;4.50;;
18338;SDS011;9295;44.484;11.240;2023-07-20T01:35:04;16.43;;;5.30;;
18338;SDS011;9295;44.484;11.240;2023-07-20T01:37:34;13.33;;;4.53;;
18338;SDS011;9295;44.484;11.240;2023-07-20T01:40:05;12.00;;;4.70;;
18338;SDS011;9295;44.484;11.240;2023-07-20T01:42:37;11.70;;;4.43;;
18338;SDS011;9295;44.484;11.240;2023-07-20T01:45:06;13.87;;;4.30;;
18338;SDS011;9295;44.484;11.240;2023-07-20T01:47:37;15.73;;;4.90;;
18338;SDS011;9295;44.484;11.240;2023-07-20T01:50:06;11.70;;;4.40;;
18338;SDS011;9295;44.484;11.240;2023-07-20T01:52:35;10.60;;;4.30;;
18338;SDS011;9295;44.484;11.240;2023-07-20T01:55:06;9.00;;;4.37;;
18338;SDS011;9295;44.484;11.240;2023-07-20T01:57:35;16.23;;;4.20;;
18338;SDS011;9295;44.484;11.240;2023-07-20T02:00:05;10.93;;;3.90;;
18338;SDS011;9295;44.484;11.240;2023-07-20T02:02:41;12.63;;;3.87;;
18338;SDS011;9295;44.484;11.240;2023-07-20T02:05:10;13.63;;;4.50;;
18338;SDS011;9295;44.484;11.240;2023-07-20T02:07:39;19.47;;;4.17;;
18338;SDS011;9295;44.484;11.240;2023-07-20T02:10:10;10.50;;;3.93;;
18338;SDS011;9295;44.484;11.240;2023-07-20T02:12:38;8.70;;;3.70;;
18338;SDS011;9295;44.484;11.240;2023-07-20T02:15:07;15.03;;;3.87;;
18338;SDS011;9295;44.484;11.240;2023-07-20T02:17:37;8.57;;;4.13;;
18338;SDS011;9295;44.484;11.240;2023-07-20T02:20:12;15.00;;;4.40;;
18338;SDS011;9295;44.484;11.240;2023-07-20T02:22:41;12.10;;;4.00;;
18338;SDS011;9295;44.484;11.240;2023-07-20T02:25:09;13.80;;;4.17;;
18338;SDS011;9295;44.484;11.240;2023-07-20T02:27:38;15.33;;;5.10;;
18338;SDS011;9295;44.484;11.240;2023-07-20T02:30:07;11.67;;;4.93;;
18338;SDS011;9295;44.484;11.240;2023-07-20T02:32:38;12.17;;;4.33;;
18338;SDS011;9295;44.484;11.240;2023-07-20T02:35:09;9.50;;;4.17;;
18338;SDS011;9295;44.484;11.240;2023-07-20T02:37:38;9.80;;;4.10;;
18338;SDS011;9295;44.484;11.240;2023-07-20T02:40:07;9.37;;;4.17;;
18338;SDS011;9295;44.484;11.240;2023-07-20T02:42:38;12.47;;;4.40;;
18338;SDS011;9295;44.484;11.240;2023-07-20T02:45:07;10.17;;;3.83;;
18338;SDS011;9295;44.484;11.240;2023-07-20T02:47:36;11.47;;;4.10;;
18338;SDS011;9295;44.484;11.240;2023-07-20T02:50:05;12.87;;;4.10;;
18338;SDS011;9295;44.484;11.240;2023-07-20T02:52:38;9.80;;;4.07;;
18338;SDS011;9295;44.484;11.240;2023-07-20T02:55:06;10.57;;;4.10;;
18338;SDS011;9295;44.484;11.240;2023-07-20T02:57:36;10.33;;;4.40;;
18338;SDS011;9295;44.484;11.240;2023-07-20T03:00:06;10.63;;;4.40;;
18338;SDS011;9295;44.484;11.240;2023-07-20T03:02:35;6.67;;;3.90;;
18338;SDS011;9295;44.484;11.240;2023-07-20T03:05:05;12.23;;;4.17;;
18338;SDS011;9295;44.484;11.240;2023-07-20T03:07:34;11.03;;;4.90;;
18338;SDS011;9295;44.484;11.240;2023-07-20T03:10:05;7.90;;;3.40;;
18338;SDS011;9295;44.484;11.240;2023-07-20T03:12:36;9.87;;;4.20;;
18338;SDS011;9295;44.484;11.240;2023-07-20T03:15:05;13.37;;;4.30;;
18338;SDS011;9295;44.484;11.240;2023-07-20T03:17:34;15.73;;;5.20;;
18338;SDS011;9295;44.484;11.240;2023-07-20T03:20:04;9.67;;;4.60;;
18338;SDS011;9295;44.484;11.240;2023-07-20T03:22:35;9.20;;;3.70;;
18338;SDS011;9295;44.484;11.240;2023-07-20T03:25:08;10.57;;;4.43;;
18338;SDS011;9295;44.484;11.240;2023-07-20T03:27:37;9.00;;;4.40;;
18338;SDS011;9295;44.484;11.240;2023-07-20T03:30:08;11.73;;;3.90;;
18338;SDS011;9295;44.484;11.240;2023-07-20T03:32:37;9.90;;;4.27;;
18338;SDS011;9295;44.484;11.240;2023-07-20T03:35:06;11.63;;;4.40;;
18338;SDS011;9295;44.484;11.240;2023-07-20T03:37:36;10.60;;;4.70;;
18338;SDS011;9295;44.484;11.240;2023-07-20T03:40:07;13.47;;;4.77;;
18338;SDS011;9295;44.484;11.240;2023-07-20T03:42:38;13.87;;;4.20;;
18338;SDS011;9295;44.484;11.240;2023-07-20T03:45:08;20.00;;;4.97;;
18338;SDS011;9295;44.484;11.240;2023-07-20T03:47:37;10.07;;;4.70;;
18338;SDS011;9295;44.484;11.240;2023-07-20T03:50:06;10.60;;;4.40;;
18338;SDS011;9295;44.484;11.240;2023-07-20T03:52:37;9.30;;;4.20;;
18338;SDS011;9295;44.484;11.240;2023-07-20T03:55:07;12.13;;;4.77;;
18338;SDS011;9295;44.484;11.240;2023-07-20T03:57:36;13.17;;;4.70;;
18338;SDS011;9295;44.484;11.240;2023-07-20T04:00:05;18.80;;;5.10;;
18338;SDS011;9295;44.484;11.240;2023-07-20T04:02:38;10.53;;;4.70;;
18338;SDS011;9295;44.484;11.240;2023-07-20T04:05:07;13.73;;;4.47;;
18338;SDS011;9295;44.484;11.240;2023-07-20T04:07:36;9.10;;;4.27;;
18338;SDS011;9295;44.484;11.240;2023-07-20T04:10:04;13.80;;;4.30;;
18338;SDS011;9295;44.484;11.240;2023-07-20T04:12:37;16.60;;;4.90;;
18338;SDS011;9295;44.484;11.240;2023-07-20T04:15:06;13.47;;;5.10;;
18338;SDS011;9295;44.484;11.240;2023-07-20T04:17:35;13.83;;;5.20;;
18338;SDS011;9295;44.484;11.240;2023-07-20T04:20:04;14.53;;;4.80;;
18338;SDS011;9295;44.484;11.240;2023-07-20T04:22:34;14.40;;;4.57;;
18338;SDS011;9295;44.484;11.240;2023-07-20T04:25:04;15.57;;;4.70;;
18338;SDS011;9295;44.484;11.240;2023-07-20T04:27:34;10.17;;;5.00;;
18338;SDS011;9295;44.484;11.240;2023-07-20T04:30:03;16.33;;;5.10;;
18338;SDS011;9295;44.484;11.240;2023-07-20T04:32:34;11.40;;;4.57;;
18338;SDS011;9295;44.484;11.240;2023-07-20T04:35:05;10.47;;;4.30;;
18338;SDS011;9295;44.484;11.240;2023-07-20T04:37:39;15.70;;;5.40;;
18338;SDS011;9295;44.484;11.240;2023-07-20T04:40:15;10.90;;;3.90;;
18338;SDS011;9295;44.484;11.240;2023-07-20T04:42:45;12.17;;;4.60;;
18338;SDS011;9295;44.484;11.240;2023-07-20T04:45:16;22.57;;;5.47;;
18338;SDS011;9295;44.484;11.240;2023-07-20T04:47:45;11.80;;;4.50;;
18338;SDS011;9295;44.484;11.240;2023-07-20T04:50:15;14.53;;;5.03;;
18338;SDS011;9295;44.484;11.240;2023-07-20T04:52:44;7.50;;;4.50;;
18338;SDS011;9295;44.484;11.240;2023-07-20T04:55:19;14.27;;;5.93;;
18338;SDS011;9295;44.484;11.240;2023-07-20T04:57:52;15.03;;;4.93;;
18338;SDS011;9295;44.484;11.240;2023-07-20T05:00:23;12.60;;;4.47;;
18338;SDS011;9295;44.484;11.240;2023-07-20T05:02:52;15.03;;;5.00;;
18338;SDS011;9295;44.484;11.240;2023-07-20T05:05:23;20.43;;;5.60;;
18338;SDS011;9295;44.484;11.240;2023-07-20T05:07:52;14.80;;;4.40;;
18338;SDS011;9295;44.484;11.240;2023-07-20T05:10:21;23.43;;;5.20;;
18338;SDS011;9295;44.484;11.240;2023-07-20T05:12:50;15.73;;;5.30;;
18338;SDS011;9295;44.484;11.240;2023-07-20T05:15:22;14.57;;;4.80;;
18338;SDS011;9295;44.484;11.240;2023-07-20T05:17:52;17.53;;;4.63;;
18338;SDS011;9295;44.484;11.240;2023-07-20T05:20:22;16.60;;;5.60;;
18338;SDS011;9295;44.484;11.240;2023-07-20T05:22:51;14.57;;;5.27;;
18338;SDS011;9295;44.484;11.240;2023-07-20T05:25:19;17.00;;;5.43;;
18338;SDS011;9295;44.484;11.240;2023-07-20T05:27:49;14.73;;;5.17;;
18338;SDS011;9295;44.484;11.240;2023-07-20T05:30:19;11.40;;;4.57;;
18338;SDS011;9295;44.484;11.240;2023-07-20T05:32:49;15.70;;;4.77;;
18338;SDS011;9295;44.484;11.240;2023-07-20T05:35:19;14.83;;;4.90;;
18338;SDS011;9295;44.484;11.240;2023-07-20T05:37:49;15.63;;;5.10;;
18338;SDS011;9295;44.484;11.240;2023-07-20T05:40:17;14.63;;;5.10;;
18338;SDS011;9295;44.484;11.240;2023-07-20T05:42:47;20.70;;;5.33;;
18338;SDS011;9295;44.484;11.240;2023-07-20T05:45:20;16.27;;;4.93;;
18338;SDS011;9295;44.484;11.240;2023-07-20T05:47:48;13.73;;;4.90;;
18338;SDS011;9295;44.484;11.240;2023-07-20T05:50:17;16.60;;;5.27;;
18338;SDS011;9295;44.484;11.240;2023-07-20T05:52:46;19.03;;;4.83;;
18338;SDS011;9295;44.484;11.240;2023-07-20T05:55:14;14.00;;;5.13;;
18338;SDS011;9295;44.484;11.240;2023-07-20T05:57:43;24.23;;;5.73;;
18338;SDS011;9295;44.484;11.240;2023-07-20T06:00:12;17.43;;;5.00;;
18338;SDS011;9295;44.484;11.240;2023-07-20T06:02:44;13.27;;;5.43;;
18338;SDS011;9295;44.484;11.240;2023-07-20T06:05:14;15.20;;;5.40;;
18338;SDS011;9295;44.484;11.240;2023-07-20T06:07:43;15.43;;;5.27;;
18338;SDS011;9295;44.484;11.240;2023-07-20T06:10:12;18.13;;;5.10;;
18338;SDS011;9295;44.484;11.240;2023-07-20T06:12:41;16.70;;;5.50;;
18338;SDS011;9295;44.484;11.240;2023-07-20T06:15:23;18.17;;;5.73;;
18338;SDS011;9295;44.484;11.240;2023-07-20T06:17:55;22.13;;;6.00;;
18338;SDS011;9295;44.484;11.240;2023-07-20T06:20:25;14.07;;;5.30;;
18338;SDS011;9295;44.484;11.240;2023-07-20T06:22:53;14.70;;;5.63;;
18338;SDS011;9295;44.484;11.240;2023-07-20T06:25:22;24.57;;;6.07;;
18338;SDS011;9295;44.484;11.240;2023-07-20T06:27:51;15.63;;;5.57;;
18338;SDS011;9295;44.484;11.240;2023-07-20T06:30:20;19.07;;;5.20;;
18338;SDS011;9295;44.484;11.240;2023-07-20T06:32:51;22.97;;;6.00;;
18338;SDS011;9295;44.484;11.240;2023-07-20T06:35:21;13.50;;;4.60;;
18338;SDS011;9295;44.484;11.240;2023-07-20T06:37:50;29.10;;;6.27;;
18338;SDS011;9295;44.484;11.240;2023-07-20T06:40:21;15.07;;;5.00;;
18338;SDS011;9295;44.484;11.240;2023-07-20T06:42:54;22.83;;;6.33;;
18338;SDS011;9295;44.484;11.240;2023-07-20T06:45:25;17.87;;;5.57;;
18338;SDS011;9295;44.484;11.240;2023-07-20T06:47:54;11.20;;;4.93;;
18338;SDS011;9295;44.484;11.240;2023-07-20T06:50:24;15.73;;;4.50;;
18338;SDS011;9295;44.484;11.240;2023-07-20T06:52:53;12.23;;;4.80;;
18338;SDS011;9295;44.484;11.240;2023-07-20T06:55:24;18.03;;;4.80;;
18338;SDS011;9295;44.484;11.240;2023-07-20T06:57:58;16.57;;;5.40;;
18338;SDS011;9295;44.484;11.240;2023-07-20T07:00:26;13.00;;;5.97;;
18338;SDS011;9295;44.484;11.240;2023-07-20T07:02:55;21.17;;;5.00;;
18338;SDS011;9295;44.484;11.240;2023-07-20T07:05:28;15.57;;;4.73;;
18338;SDS011;9295;44.484;11.240;2023-07-20T07:07:59;25.70;;;5.20;;
18338;SDS011;9295;44.484;11.240;2023-07-20T07:10:28;11.23;;;5.00;;
18338;SDS011;9295;44.484;11.240;2023-07-20T07:12:56;11.47;;;4.53;;
18338;SDS011;9295;44.484;11.240;2023-07-20T07:15:25;10.50;;;4.70;;
18338;SDS011;9295;44.484;11.240;2023-07-20T07:17:54;25.17;;;5.30;;
18338;SDS011;9295;44.484;11.240;2023-07-20T07:20:23;19.33;;;5.37;;
18338;SDS011;9295;44.484;11.240;2023-07-20T07:22:55;16.43;;;5.53;;
18338;SDS011;9295;44.484;11.240;2023-07-20T07:25:26;16.07;;;5.20;;
18338;SDS011;9295;44.484;11.240;2023-07-20T07:27:55;13.37;;;5.33;;
18338;SDS011;9295;44.484;11.240;2023-07-20T07:30:25;18.63;;;5.33;;
18338;SDS011;9295;44.484;11.240;2023-07-20T07:32:54;14.67;;;4.73;;
18338;SDS011;9295;44.484;11.240;2023-07-20T07:35:22;16.80;;;5.33;;
18338;SDS011;9295;44.484;11.240;2023-07-20T07:37:51;19.93;;;5.50;;
18338;SDS011;9295;44.484;11.240;2023-07-20T07:40:41;24.03;;;5.10;;
18338;SDS011;9295;44.484;11.240;2023-07-20T07:43:09;17.40;;;5.90;;
18338;SDS011;9295;44.484;11.240;2023-07-20T07:45:38;18.27;;;5.13;;
18338;SDS011;9295;44.484;11.240;2023-07-20T07:48:11;21.13;;;6.17;;
18338;SDS011;9295;44.484;11.240;2023-07-20T07:53:50;14.37;;;5.80;;
18338;SDS011;9295;44.484;11.240;2023-07-20T07:56:26;19.57;;;5.47;;
18338;SDS011;9295;44.484;11.240;2023-07-20T07:58:55;14.67;;;4.93;;
18338;SDS011;9295;44.484;11.240;2023-07-20T08:01:24;19.90;;;5.50;;
18338;SDS011;9295;44.484;11.240;2023-07-20T08:03:53;15.43;;;5.57;;
18338;SDS011;9295;44.484;11.240;2023-07-20T08:06:22;20.13;;;5.37;;
18338;SDS011;9295;44.484;11.240;2023-07-20T08:08:53;21.83;;;5.87;;
18338;SDS011;9295;44.484;11.240;2023-07-20T08:11:23;13.90;;;6.00;;
18338;SDS011;9295;44.484;11.240;2023-07-20T08:13:57;17.90;;;5.60;;
18338;SDS011;9295;44.484;11.240;2023-07-20T08:16:25;18.90;;;5.90;;
18338;SDS011;9295;44.484;11.240;2023-07-20T08:18:56;18.40;;;5.50;;
18338;SDS011;9295;44.484;11.240;2023-07-20T08:21:25;14.10;;;6.57;;
18338;SDS011;9295;44.484;11.240;2023-07-20T08:23:54;14.63;;;6.10;;
18338;SDS011;9295;44.484;11.240;2023-07-20T08:26:23;17.53;;;6.30;;
18338;SDS011;9295;44.484;11.240;2023-07-20T08:28:52;17.07;;;6.13;;
18338;SDS011;9295;44.484;11.240;2023-07-20T08:31:22;16.40;;;6.40;;
18338;SDS011;9295;44.484;11.240;2023-07-20T08:33:52;17.13;;;6.17;;
18338;SDS011;9295;44.484;11.240;2023-07-20T08:36:20;15.63;;;5.67;;
18338;SDS011;9295;44.484;11.240;2023-07-20T08:38:49;11.13;;;5.63;;
18338;SDS011;9295;44.484;11.240;2023-07-20T08:41:19;20.53;;;6.40;;
18338;SDS011;9295;44.484;11.240;2023-07-20T08:43:51;17.87;;;6.40;;
18338;SDS011;9295;44.484;11.240;2023-07-20T08:46:27;22.57;;;6.20;;
18338;SDS011;9295;44.484;11.240;2023-07-20T08:48:57;22.20;;;6.10;;
18338;SDS011;9295;44.484;11.240;2023-07-20T08:51:30;14.53;;;7.00;;
18338;SDS011;9295;44.484;11.240;2023-07-20T08:54:00;15.73;;;6.07;;
18338;SDS011;9295;44.484;11.240;2023-07-20T08:56:29;19.33;;;6.47;;
18338;SDS011;9295;44.484;11.240;2023-07-20T08:59:01;26.13;;;6.60;;
18338;SDS011;9295;44.484;11.240;2023-07-20T09:01:31;20.93;;;7.00;;
18338;SDS011;9295;44.484;11.240;2023-07-20T09:04:00;12.27;;;5.57;;
18338;SDS011;9295;44.484;11.240;2023-07-20T09:06:29;18.60;;;6.83;;
18338;SDS011;9295;44.484;11.240;2023-07-20T09:08:57;14.33;;;5.80;;
18338;SDS011;9295;44.484;11.240;2023-07-20T09:11:26;18.80;;;6.80;;
18338;SDS011;9295;44.484;11.240;2023-07-20T09:14:04;32.43;;;6.73;;
18338;SDS011;9295;44.484;11.240;2023-07-20T09:16:47;20.87;;;7.37;;
18338;SDS011;9295;44.484;11.240;2023-07-20T09:19:17;24.67;;;7.60;;
18338;SDS011;9295;44.484;11.240;2023-07-20T09:21:46;20.27;;;6.70;;
18338;SDS011;9295;44.484;11.240;2023-07-20T09:24:15;27.83;;;6.97;;
18338;SDS011;9295;44.484;11.240;2023-07-20T09:26:46;27.40;;;6.30;;
18338;SDS011;9295;44.484;11.240;2023-07-20T09:29:17;14.40;;;5.97;;
18338;SDS011;9295;44.484;11.240;2023-07-20T09:31:59;19.27;;;6.90;;
18338;SDS011;9295;44.484;11.240;2023-07-20T09:34:28;22.80;;;7.17;;
18338;SDS011;9295;44.484;11.240;2023-07-20T09:37:01;15.50;;;6.23;;
18338;SDS011;9295;44.484;11.240;2023-07-20T09:39:32;23.50;;;7.33;;
18338;SDS011;9295;44.484;11.240;2023-07-20T09:42:29;30.70;;;6.97;;
18338;SDS011;9295;44.484;11.240;2023-07-20T09:45:01;18.67;;;6.43;;
18338;SDS011;9295;44.484;11.240;2023-07-20T09:47:31;19.20;;;6.27;;
18338;SDS011;9295;44.484;11.240;2023-07-20T09:50:04;18.97;;;6.97;;
18338;SDS011;9295;44.484;11.240;2023-07-20T09:52:40;20.03;;;6.23;;
18338;SDS011;9295;44.484;11.240;2023-07-20T09:55:13;18.80;;;6.27;;
18338;SDS011;9295;44.484;11.240;2023-07-20T09:57:45;14.50;;;6.20;;
18338;SDS011;9295;44.484;11.240;2023-07-20T10:00:14;12.10;;;6.03;;
18338;SDS011;9295;44.484;11.240;2023-07-20T10:02:48;11.10;;;6.37;;
18338;SDS011;9295;44.484;11.240;2023-07-20T10:05:19;19.43;;;6.60;;
18338;SDS011;9295;44.484;11.240;2023-07-20T10:07:49;21.47;;;6.83;;
18338;SDS011;9295;44.484;11.240;2023-07-20T10:10:40;27.47;;;6.87;;
18338;SDS011;9295;44.484;11.240;2023-07-20T10:13:13;19.93;;;7.07;;
18338;SDS011;9295;44.484;11.240;2023-07-20T10:15:46;38.67;;;6.40;;
18338;SDS011;9295;44.484;11.240;2023-07-20T10:18:21;19.20;;;6.80;;
18338;SDS011;9295;44.484;11.240;2023-07-20T10:20:57;20.87;;;6.93;;
18338;SDS011;9295;44.484;11.240;2023-07-20T10:23:31;19.40;;;7.10;;
18338;SDS011;9295;44.484;11.240;2023-07-20T10:26:00;15.33;;;6.70;;
18338;SDS011;9295;44.484;11.240;2023-07-20T10:28:29;20.80;;;7.30;;
18338;SDS011;9295;44.484;11.240;2023-07-20T10:30:58;14.83;;;7.20;;
18338;SDS011;9295;44.484;11.240;2023-07-20T10:33:28;22.47;;;7.30;;
18338;SDS011;9295;44.484;11.240;2023-07-20T10:36:01;21.30;;;7.20;;
18338;SDS011;9295;44.484;11.240;2023-07-20T10:38:38;20.70;;;7.43;;
18338;SDS011;9295;44.484;11.240;2023-07-20T10:41:17;19.67;;;7.60;;
18338;SDS011;9295;44.484;11.240;2023-07-20T10:43:49;16.00;;;6.63;;
18338;SDS011;9295;44.484;11.240;2023-07-20T10:49:03;16.30;;;7.33;;
18338;SDS011;9295;44.484;11.240;2023-07-20T10:51:38;15.43;;;7.40;;
18338;SDS011;9295;44.484;11.240;2023-07-20T10:54:08;20.87;;;7.47;;
18338;SDS011;9295;44.484;11.240;2023-07-20T10:56:58;19.60;;;7.00;;
18338;SDS011;9295;44.484;11.240;2023-07-20T10:59:50;19.53;;;7.60;;
18338;SDS011;9295;44.484;11.240;2023-07-20T11:02:18;22.17;;;7.60;;
18338;SDS011;9295;44.484;11.240;2023-07-20T11:04:49;20.40;;;7.83;;
18338;SDS011;9295;44.484;11.240;2023-07-20T11:07:17;24.23;;;7.33;;
18338;SDS011;9295;44.484;11.240;2023-07-20T11:10:13;18.80;;;7.20;;
18338;SDS011;9295;44.484;11.240;2023-07-20T11:15:47;31.63;;;7.93;;
18338;SDS011;9295;44.484;11.240;2023-07-20T11:18:29;23.07;;;7.33;;
18338;SDS011;9295;44.484;11.240;2023-07-20T11:21:00;15.67;;;7.63;;
18338;SDS011;9295;44.484;11.240;2023-07-20T11:23:29;13.47;;;6.83;;
18338;SDS011;9295;44.484;11.240;2023-07-20T11:26:00;15.07;;;7.20;;
18338;SDS011;9295;44.484;11.240;2023-07-20T11:28:30;21.43;;;7.03;;
18338;SDS011;9295;44.484;11.240;2023-07-20T11:30:59;22.67;;;7.13;;
18338;SDS011;9295;44.484;11.240;2023-07-20T11:33:29;17.80;;;7.67;;
18338;SDS011;9295;44.484;11.240;2023-07-20T11:35:58;19.70;;;6.63;;
18338;SDS011;9295;44.484;11.240;2023-07-20T11:38:28;22.57;;;7.70;;
18338;SDS011;9295;44.484;11.240;2023-07-20T11:40:57;19.00;;;7.73;;
18338;SDS011;9295;44.484;11.240;2023-07-20T11:43:26;22.83;;;8.23;;
18338;SDS011;9295;44.484;11.240;2023-07-20T11:45:54;15.50;;;7.43;;
18338;SDS011;9295;44.484;11.240;2023-07-20T11:48:23;22.00;;;7.90;;
18338;SDS011;9295;44.484;11.240;2023-07-20T11:50:52;20.67;;;7.70;;
18338;SDS011;9295;44.484;11.240;2023-07-20T11:53:24;25.30;;;7.80;;
18338;SDS011;9295;44.484;11.240;2023-07-20T11:55:53;16.90;;;7.30;;
18338;SDS011;9295;44.484;11.240;2023-07-20T11:58:21;24.23;;;6.87;;
18338;SDS011;9295;44.484;11.240;2023-07-20T12:00:51;20.67;;;7.57;;
18338;SDS011;9295;44.484;11.240;2023-07-20T12:03:29;23.60;;;7.50;;
18338;SDS011;9295;44.484;11.240;2023-07-20T12:06:05;20.60;;;7.57;;
18338;SDS011;9295;44.484;11.240;2023-07-20T12:08:36;19.20;;;7.50;;
18338;SDS011;9295;44.484;11.240;2023-07-20T12:11:06;15.13;;;7.00;;
18338;SDS011;9295;44.484;11.240;2023-07-20T12:13:36;17.17;;;7.77;;
18338;SDS011;9295;44.484;11.240;2023-07-20T12:16:09;16.90;;;6.90;;
18338;SDS011;9295;44.484;11.240;2023-07-20T12:18:40;27.43;;;7.13;;
18338;SDS011;9295;44.484;11.240;2023-07-20T12:21:10;20.07;;;6.87;;
18338;SDS011;9295;44.484;11.240;2023-07-20T12:23:41;23.80;;;7.80;;
18338;SDS011;9295;44.484;11.240;2023-07-20T12:26:10;17.90;;;6.87;;
18338;SDS011;9295;44.484;11.240;2023-07-20T12:28:42;21.27;;;7.30;;
18338;SDS011;9295;44.484;11.240;2023-07-20T12:31:11;13.10;;;6.83;;
18338;SDS011;9295;44.484;11.240;2023-07-20T12:33:40;16.37;;;6.90;;
18338;SDS011;9295;44.484;11.240;2023-07-20T12:36:10;20.80;;;7.17;;
18338;SDS011;9295;44.484;11.240;2023-07-20T12:38:42;22.90;;;7.87;;
18338;SDS011;9295;44.484;11.240;2023-07-20T12:41:12;18.50;;;7.20;;
18338;SDS011;9295;44.484;11.240;2023-07-20T12:43:42;24.27;;;8.10;;
18338;SDS011;9295;44.484;11.240;2023-07-20T12:46:12;18.03;;;7.03;;
18338;SDS011;9295;44.484;11.240;2023-07-20T12:48:41;27.87;;;7.90;;
18338;SDS011;9295;44.484;11.240;2023-07-20T12:51:13;28.80;;;7.80;;
18338;SDS011;9295;44.484;11.240;2023-07-20T12:53:43;24.77;;;7.60;;
18338;SDS011;9295;44.484;11.240;2023-07-20T12:56:12;16.70;;;7.30;;
18338;SDS011;9295;44.484;11.240;2023-07-20T12:58:45;23.20;;;7.33;;
18338;SDS011;9295;44.484;11.240;2023-07-20T13:01:16;18.40;;;7.73;;
18338;SDS011;9295;44.484;11.240;2023-07-20T13:03:45;18.20;;;7.40;;
18338;SDS011;9295;44.484;11.240;2023-07-20T13:06:16;20.67;;;7.00;;
18338;SDS011;9295;44.484;11.240;2023-07-20T13:08:49;18.13;;;7.53;;
18338;SDS011;9295;44.484;11.240;2023-07-20T13:11:22;31.03;;;8.30;;
18338;SDS011;9295;44.484;11.240;2023-07-20T13:13:51;19.20;;;7.47;;
18338;SDS011;9295;44.484;11.240;2023-07-20T13:16:20;21.30;;;8.07;;
18338;SDS011;9295;44.484;11.240;2023-07-20T13:18:49;28.60;;;7.50;;
18338;SDS011;9295;44.484;11.240;2023-07-20T13:21:17;23.77;;;8.00;;
18338;SDS011;9295;44.484;11.240;2023-07-20T13:23:52;22.27;;;7.30;;
18338;SDS011;9295;44.484;11.240;2023-07-20T13:26:21;28.70;;;8.13;;
18338;SDS011;9295;44.484;11.240;2023-07-20T13:28:52;30.90;;;7.70;;
18338;SDS011;9295;44.484;11.240;2023-07-20T13:31:21;19.60;;;7.60;;
18338;SDS011;9295;44.484;11.240;2023-07-20T13:33:51;22.90;;;7.37;;
18338;SDS011;9295;44.484;11.240;2023-07-20T13:36:25;22.10;;;6.77;;
18338;SDS011;9295;44.484;11.240;2023-07-20T13:39:00;22.63;;;7.40;;
18338;SDS011;9295;44.484;11.240;2023-07-20T13:41:32;23.20;;;7.30;;
18338;SDS011;9295;44.484;11.240;2023-07-20T13:44:01;26.47;;;7.67;;
18338;SDS011;9295;44.484;11.240;2023-07-20T13:46:32;21.03;;;7.40;;
18338;SDS011;9295;44.484;11.240;2023-07-20T13:49:08;21.50;;;8.47;;
18338;SDS011;9295;44.484;11.240;2023-07-20T13:51:41;19.10;;;7.50;;
18338;SDS011;9295;44.484;11.240;2023-07-20T13:54:11;18.07;;;7.00;;
18338;SDS011;9295;44.484;11.240;2023-07-20T13:56:44;25.40;;;8.97;;
18338;SDS011;9295;44.484;11.240;2023-07-20T13:59:16;20.43;;;7.53;;
18338;SDS011;9295;44.484;11.240;2023-07-20T14:01:45;24.83;;;7.67;;
18338;SDS011;9295;44.484;11.240;2023-07-20T14:04:14;34.00;;;8.50;;
18338;SDS011;9295;44.484;11.240;2023-07-20T14:06:43;17.93;;;7.40;;
18338;SDS011;9295;44.484;11.240;2023-07-20T14:09:13;18.27;;;7.83;;
18338;SDS011;9295;44.484;11.240;2023-07-20T14:11:41;18.20;;;7.57;;
18338;SDS011;9295;44.484;11.240;2023-07-20T14:14:13;21.83;;;7.73;;
18338;SDS011;9295;44.484;11.240;2023-07-20T14:16:44;19.63;;;7.73;;
18338;SDS011;9295;44.484;11.240;2023-07-20T14:19:13;16.80;;;7.90;;
18338;SDS011;9295;44.484;11.240;2023-07-20T14:21:42;12.33;;;6.60;;
18338;SDS011;9295;44.484;11.240;2023-07-20T14:24:12;16.37;;;7.47;;
18338;SDS011;9295;44.484;11.240;2023-07-20T14:26:45;19.77;;;6.80;;
18338;SDS011;9295;44.484;11.240;2023-07-20T14:29:17;19.73;;;8.00;;
18338;SDS011;9295;44.484;11.240;2023-07-20T14:31:49;23.83;;;8.07;;
18338;SDS011;9295;44.484;11.240;2023-07-20T14:34:19;22.87;;;7.80;;
18338;SDS011;9295;44.484;11.240;2023-07-20T14:36:48;23.00;;;7.60;;
18338;SDS011;9295;44.484;11.240;2023-07-20T14:39:19;20.90;;;7.53;;
18338;SDS011;9295;44.484;11.240;2023-07-20T14:41:49;18.20;;;7.53;;
18338;SDS011;9295;44.484;11.240;2023-07-20T14:44:23;18.03;;;7.27;;
18338;SDS011;9295;44.484;11.240;2023-07-20T14:46:57;28.37;;;7.60;;
18338;SDS011;9295;44.484;11.240;2023-07-20T14:49:40;22.37;;;7.30;;
18338;SDS011;9295;44.484;11.240;2023-07-20T14:52:10;21.13;;;7.97;;
18338;SDS011;9295;44.484;11.240;2023-07-20T14:54:44;17.10;;;7.50;;
18338;SDS011;9295;44.484;11.240;2023-07-20T14:57:14;23.23;;;8.30;;
18338;SDS011;9295;44.484;11.240;2023-07-20T14:59:43;18.00;;;7.63;;
18338;SDS011;9295;44.484;11.240;2023-07-20T15:02:12;18.43;;;7.37;;
18338;SDS011;9295;44.484;11.240;2023-07-20T15:04:46;15.80;;;7.63;;
18338;SDS011;9295;44.484;11.240;2023-07-20T15:07:16;17.63;;;7.63;;